Time;durP1;ratioP1;P1;durP2;ratioP2;P2;SDS_P1;SDS_P2;PMS_P1;PMS_P2;Temp;Humidity;BMP_temperature;BMP_pressure;BME280_temperature;BME280_humidity;BME280_pressure;Samples;Min_cycle;Max_cycle;Signal;HPM_P1;HPM_P2
2022/09/08 00:01:18;;;;;;;;;;;19.00;64.40;;;15.17;100.00;95177.78;4994519;28;20364;-46
2022/09/08 00:03:46;;;;;;;;;;;19.00;64.40;;;15.18;100.00;95179.34;5003890;28;19909;-45
2022/09/08 00:06:16;;;;;;;;;;;19.00;64.40;;;15.19;100.00;95183.63;4993759;28;19924;-46
2022/09/08 00:08:46;;;;;;;;;;;19.00;64.40;;;15.19;100.00;95186.28;4990227;28;19920;-45
2022/09/08 00:11:18;;;;;;;;;;;19.00;64.40;;;15.19;100.00;95188.19;4987593;28;19917;-43
2022/09/08 00:13:46;;;;;;;;;;;19.00;64.40;;;15.18;100.00;95182.03;4990520;28;19932;-46
2022/09/08 00:16:18;;;;;;;;;;;19.00;64.40;;;15.14;100.00;95185.66;5000871;28;20372;-44
2022/09/08 00:18:44;;;;;;;;;;;19.00;64.40;;;15.16;100.00;95188.78;4993282;28;19909;-43
2022/09/08 00:21:13;;;;;;;;;;;19.10;64.60;;;15.16;100.00;95184.22;4987028;28;19916;-43
2022/09/08 00:23:39;;;;;;;;;;;19.10;64.60;;;15.13;100.00;95202.81;5005532;28;19925;-43
2022/09/08 00:26:05;;;;;;;;;;;19.00;64.60;;;15.12;100.00;95209.28;4997545;28;19967;-43
2022/09/08 00:28:34;;;;;;;;;;;19.00;64.70;;;15.15;100.00;95217.53;4992828;28;19913;-44
2022/09/08 00:31:05;;;;;;;;;;;19.00;64.80;;;15.20;100.00;95219.31;4989459;28;20279;-43
2022/09/08 00:33:32;;;;;;;;;;;19.00;65.30;;;15.22;100.00;95220.56;5006202;28;19913;-43
2022/09/08 00:35:58;;;;;;;;;;;19.10;65.00;;;15.22;100.00;95219.78;4989519;28;20427;-43
2022/09/08 00:38:32;;;;;;;;;;;19.10;65.00;;;15.24;100.00;95226.44;5002203;28;19917;-43
2022/09/08 00:41:11;;;;;;;;;;;19.10;65.00;;;15.25;100.00;95219.97;4997807;28;19916;-42
2022/09/08 00:43:44;;;;;;;;;;;19.10;65.00;;;15.24;100.00;95231.81;4967448;28;19923;-44
2022/09/08 00:46:12;;;;;;;;;;;19.10;65.10;;;15.24;100.00;95233.69;5004140;28;20235;-44
2022/09/08 00:49:17;;;;;;;;;;;19.10;65.10;;;15.22;100.00;95233.19;4999382;28;19971;-45
2022/09/08 00:51:50;;;;;;;;;;;19.10;65.10;;;15.24;100.00;95245.22;5001090;28;19917;-43
2022/09/08 00:54:18;;;;;;;;;;;19.10;65.20;;;15.20;100.00;95256.88;4986567;28;19960;-44
2022/09/08 00:56:47;;;;;;;;;;;19.10;65.40;;;15.17;100.00;95252.09;4985945;28;19948;-43
2022/09/08 00:59:20;;;;;;;;;;;19.10;65.40;;;15.20;100.00;95246.94;4990263;28;19932;-43
2022/09/08 01:01:47;;;;;;;;;;;19.10;65.50;;;15.20;100.00;95248.81;4991649;28;20225;-49
2022/09/08 01:04:13;;;;;;;;;;;19.10;65.60;;;15.21;100.00;95253.88;4987583;28;19974;-48
2022/09/08 01:13:07;;;;;;;;;;;19.00;66.00;;;15.25;100.00;95246.00;4997095;28;19986;-43
2022/09/08 01:15:33;;;;;;;;;;;19.00;66.10;;;15.27;100.00;95235.78;4972196;28;19928;-44
2022/09/08 01:18:04;;;;;;;;;;;19.00;66.20;;;15.27;100.00;95236.56;4988935;28;19913;-44
2022/09/08 01:20:59;;;;;;;;;;;19.00;66.20;;;15.27;100.00;95230.41;4989702;28;19913;-45
2022/09/08 01:24:17;;;;;;;;;;;19.10;66.30;;;15.30;100.00;95232.50;4989930;28;20288;-47
2022/09/08 01:27:28;;;;;;;;;;;19.10;66.30;;;15.30;100.00;95223.66;4969182;28;20005;-49
2022/09/08 01:30:02;;;;;;;;;;;19.10;66.30;;;15.28;100.00;95232.78;4990734;28;19910;-43
2022/09/08 01:32:33;;;;;;;;;;;19.10;66.40;;;15.30;100.00;95221.75;4983739;28;20279;-45
2022/09/08 01:35:00;;;;;;;;;;;19.10;66.40;;;15.29;100.00;95209.41;4996687;28;19917;-47
2022/09/08 01:37:25;;;;;;;;;;;19.10;66.30;;;15.27;100.00;95219.69;4993951;28;20291;-43
2022/09/08 01:39:52;;;;;;;;;;;19.10;66.30;;;15.25;100.00;95197.72;4984782;28;19910;-44
2022/09/08 01:42:21;;;;;;;;;;;19.10;66.30;;;15.22;100.00;95193.75;4987273;28;20371;-46
2022/09/08 01:44:47;;;;;;;;;;;19.10;66.30;;;15.22;100.00;95211.72;5000111;28;19917;-44
2022/09/08 01:47:13;;;;;;;;;;;19.10;66.40;;;15.18;100.00;95184.72;4986113;28;19916;-44
2022/09/08 01:49:42;;;;;;;;;;;19.10;66.40;;;15.18;100.00;95187.41;4988697;28;19967;-43
2022/09/08 01:52:09;;;;;;;;;;;19.00;66.30;;;15.20;100.00;95190.59;4979137;28;20035;-43
2022/09/08 01:54:38;;;;;;;;;;;19.00;66.40;;;15.21;100.00;95194.06;4998927;28;19943;-47
2022/09/08 01:57:06;;;;;;;;;;;19.00;66.50;;;15.22;100.00;95209.06;4988280;28;19921;-47
2022/09/08 01:59:32;;;;;;;;;;;19.00;66.60;;;15.21;100.00;95210.16;4987694;28;20329;-45
2022/09/08 02:01:58;;;;;;;;;;;19.00;66.60;;;15.19;100.00;95210.44;4998584;28;19910;-49
2022/09/08 02:04:27;;;;;;;;;;;19.00;66.60;;;15.21;100.00;95216.31;5001836;28;19908;-46
2022/09/08 02:07:02;;;;;;;;;;;19.10;66.70;;;15.20;100.00;95217.41;5009984;28;19909;-48
2022/09/08 02:09:28;;;;;;;;;;;19.10;66.70;;;15.20;100.00;95213.94;4971608;28;19916;-44
2022/09/08 02:11:53;;;;;;;;;;;19.10;66.70;;;15.20;100.00;95206.69;5001938;28;19909;-47
2022/09/08 02:14:19;;;;;;;;;;;19.10;66.70;;;15.19;100.00;95199.72;4999535;28;19924;-44
2022/09/08 02:16:45;;;;;;;;;;;19.10;66.70;;;15.20;100.00;95212.06;4984727;28;19917;-49
2022/09/08 02:19:14;;;;;;;;;;;19.10;66.80;;;15.21;100.00;95202.09;4997280;28;20009;-45
2022/09/08 02:21:43;;;;;;;;;;;19.10;66.90;;;15.25;100.00;95209.22;5003244;28;20299;-45
2022/09/08 02:24:08;;;;;;;;;;;19.10;66.90;;;15.25;100.00;95208.44;4975475;28;19940;-43
2022/09/08 02:26:39;;;;;;;;;;;19.10;66.90;;;15.24;100.00;95217.59;4999993;28;19913;-49
2022/09/08 02:29:08;;;;;;;;;;;19.10;66.90;;;15.19;100.00;95210.44;4992395;28;19925;-46
2022/09/08 02:31:37;;;;;;;;;;;19.10;66.90;;;15.16;100.00;95216.41;4988672;28;20020;-48
2022/09/08 02:34:04;;;;;;;;;;;19.10;67.00;;;15.15;100.00;95217.53;4988223;28;19915;-44
2022/09/08 02:36:30;;;;;;;;;;;19.10;67.00;;;15.16;100.00;95213.72;4996691;28;19914;-45
2022/09/08 02:38:57;;;;;;;;;;;19.00;67.00;;;15.14;100.00;95231.25;4986380;28;19924;-45
2022/09/08 02:41:27;;;;;;;;;;;19.00;67.10;;;15.12;100.00;95218.13;5003267;28;19996;-45
2022/09/08 02:43:54;;;;;;;;;;;19.00;67.00;;;15.16;100.00;95219.09;4988975;28;20284;-44
2022/09/08 02:46:20;;;;;;;;;;;19.00;67.20;;;15.12;100.00;95225.38;4985895;28;19916;-44
2022/09/08 02:48:47;;;;;;;;;;;19.00;67.20;;;15.12;100.00;95222.69;4988366;28;19963;-50
2022/09/08 02:51:17;;;;;;;;;;;19.00;67.20;;;15.01;100.00;95222.09;4991130;28;19917;-43
2022/09/08 02:53:46;;;;;;;;;;;19.00;67.20;;;15.06;100.00;95211.28;4988967;28;19917;-43
2022/09/08 02:56:12;;;;;;;;;;;18.90;67.20;;;15.07;100.00;95212.84;4984951;28;20372;-46
2022/09/08 02:58:38;;;;;;;;;;;19.00;67.30;;;15.05;100.00;95207.03;4997838;28;19967;-47
2022/09/08 03:01:05;;;;;;;;;;;19.00;67.30;;;15.06;100.00;95200.56;4990652;28;20443;-43
2022/09/08 03:03:31;;;;;;;;;;;18.90;67.40;;;15.08;100.00;95208.31;4999044;28;19932;-45
2022/09/08 03:05:57;;;;;;;;;;;18.90;67.50;;;15.07;100.00;95204.03;4985546;28;19909;-44
2022/09/08 03:08:24;;;;;;;;;;;18.90;67.40;;;15.04;100.00;95208.91;4996530;28;19975;-47
2022/09/08 03:10:51;;;;;;;;;;;18.90;67.50;;;15.05;100.00;95204.34;5002362;28;19909;-45
2022/09/08 03:13:17;;;;;;;;;;;18.90;67.50;;;15.04;100.00;95205.41;4972078;28;19951;-44
2022/09/08 03:15:44;;;;;;;;;;;18.90;67.60;;;14.98;100.00;95210.13;4975456;28;19913;-44
2022/09/08 03:18:12;;;;;;;;;;;18.90;67.50;;;15.00;100.00;95212.47;5002879;28;19909;-51
2022/09/08 03:20:40;;;;;;;;;;;18.90;67.60;;;14.99;100.00;95214.38;4989364;28;20279;-44
2022/09/08 03:23:06;;;;;;;;;;;18.90;67.70;;;15.02;100.00;95213.78;4988885;28;19964;-47
2022/09/08 03:25:39;;;;;;;;;;;18.90;67.70;;;15.00;100.00;95204.44;5000779;28;20347;-43
2022/09/08 03:28:06;;;;;;;;;;;18.90;67.70;;;14.95;100.00;95205.34;4988006;28;19913;-46
2022/09/08 03:30:32;;;;;;;;;;;18.90;67.70;;;14.95;100.00;95208.03;4998949;28;19960;-43
2022/09/08 03:32:58;;;;;;;;;;;18.90;67.70;;;14.96;100.00;95206.13;4990866;28;19909;-49
2022/09/08 03:35:26;;;;;;;;;;;18.90;67.80;;;14.97;100.00;95213.88;5005458;28;19913;-43
2022/09/08 03:37:54;;;;;;;;;;;18.80;68.60;;;14.98;100.00;95210.13;4987656;28;19909;-50
2022/09/08 03:40:20;;;;;;;;;;;18.80;67.80;;;14.97;100.00;95207.72;4986662;28;19956;-48
2022/09/08 03:42:45;;;;;;;;;;;18.90;68.00;;;14.92;100.00;95215.88;4994763;28;19917;-47
2022/09/08 03:45:16;;;;;;;;;;;18.80;67.90;;;14.95;100.00;95220.66;5002885;28;19920;-47
2022/09/08 03:47:48;;;;;;;;;;;18.80;68.00;;;14.91;100.00;95216.97;4991791;28;20376;-47
2022/09/08 03:50:17;;;;;;;;;;;18.80;68.00;;;14.91;100.00;95220.44;5006402;28;20011;-43
2022/09/08 03:52:46;;;;;;;;;;;18.80;68.00;;;14.92;100.00;95218.56;4997648;28;20339;-44
2022/09/08 03:55:18;;;;;;;;;;;18.80;68.10;;;14.90;100.00;95213.50;4989135;28;20283;-46
2022/09/08 03:57:44;;;;;;;;;;;18.80;68.10;;;14.90;100.00;95213.50;5004779;28;19916;-46
2022/09/08 04:00:12;;;;;;;;;;;18.80;68.20;;;14.87;100.00;95216.78;4985696;28;19913;-50
2022/09/08 04:02:39;;;;;;;;;;;18.80;68.30;;;14.86;100.00;95222.44;4997428;28;19909;-47
2022/09/08 04:05:09;;;;;;;;;;;18.80;68.30;;;14.75;100.00;95216.50;4986220;28;19952;-43
2022/09/08 04:07:35;;;;;;;;;;;18.70;68.40;;;14.73;100.00;95213.34;4990574;28;19946;-43
2022/09/08 04:10:02;;;;;;;;;;;18.70;68.60;;;14.76;100.00;95220.75;4977786;28;19917;-44
2022/09/08 04:12:28;;;;;;;;;;;18.70;68.70;;;14.74;100.00;95217.59;4984230;28;19913;-44
2022/09/08 04:14:54;;;;;;;;;;;18.60;68.90;;;14.74;100.00;95223.75;4972378;28;19956;-47
2022/09/08 04:17:22;;;;;;;;;;;18.60;68.90;;;14.69;100.00;95226.50;4981435;28;19916;-45
2022/09/08 04:19:50;;;;;;;;;;;18.60;69.00;;;14.64;100.00;95226.63;4972740;28;19999;-51
2022/09/08 04:22:18;;;;;;;;;;;18.60;69.20;;;14.69;100.00;95218.47;4996638;28;19917;-47
2022/09/08 04:24:45;;;;;;;;;;;18.60;69.30;;;14.72;100.00;95230.50;5003583;28;19916;-43
2022/09/08 04:27:12;;;;;;;;;;;18.60;69.30;;;14.76;100.00;95234.16;5006276;28;20209;-43
2022/09/08 04:29:38;;;;;;;;;;;18.60;69.30;;;14.72;100.00;95233.97;4974664;28;19916;-45
2022/09/08 04:32:07;;;;;;;;;;;18.60;69.30;;;14.71;100.00;95234.28;4992006;28;19917;-45
2022/09/08 04:34:37;;;;;;;;;;;18.60;69.30;;;14.74;100.00;95233.69;5001136;28;19913;-43
2022/09/08 04:37:04;;;;;;;;;;;18.60;69.30;;;14.78;100.00;95245.38;4993415;28;19913;-47
2022/09/08 04:39:31;;;;;;;;;;;18.60;69.30;;;14.73;100.00;95238.25;4984475;28;19916;-50
2022/09/08 04:41:57;;;;;;;;;;;18.60;69.30;;;14.71;100.00;95242.31;4990111;28;20387;-45
2022/09/08 04:44:22;;;;;;;;;;;18.60;69.30;;;14.69;100.00;95247.97;4982460;28;19955;-43
2022/09/08 04:46:48;;;;;;;;;;;18.50;69.30;;;14.62;100.00;95252.94;4998182;28;19909;-42
2022/09/08 04:49:15;;;;;;;;;;;18.50;69.50;;;14.62;100.00;95260.19;5005152;28;19988;-47
2022/09/08 04:51:42;;;;;;;;;;;18.50;69.60;;;14.64;100.00;95249.97;4987272;28;19909;-45
2022/09/08 04:54:09;;;;;;;;;;;18.50;69.60;;;14.65;100.00;95257.69;4989333;28;19909;-44
2022/09/08 04:56:38;;;;;;;;;;;18.50;69.60;;;14.65;100.00;95256.91;4989943;28;19925;-43
2022/09/08 04:59:04;;;;;;;;;;;18.50;69.60;;;14.63;100.00;95259.88;4984409;28;20284;-44
2022/09/08 05:01:34;;;;;;;;;;;18.50;69.60;;;14.66;100.00;95261.97;5001648;28;19913;-43
2022/09/08 05:04:01;;;;;;;;;;;18.50;69.60;;;14.68;100.00;95261.69;4987028;28;20048;-44
2022/09/08 05:06:33;;;;;;;;;;;18.50;69.60;;;14.67;100.00;95254.72;4974417;28;19909;-43
2022/09/08 05:09:04;;;;;;;;;;;18.50;69.60;;;14.65;100.00;95252.34;5000123;28;20289;-45
2022/09/08 05:11:33;;;;;;;;;;;18.50;69.50;;;14.66;100.00;95250.44;4980237;28;19955;-43
2022/09/08 05:13:59;;;;;;;;;;;18.50;69.50;;;14.63;100.00;95238.44;4973767;28;19938;-48
2022/09/08 05:16:28;;;;;;;;;;;18.50;69.50;;;14.60;100.00;95227.50;4999500;28;19982;-47
2022/09/08 05:18:58;;;;;;;;;;;18.50;69.40;;;14.60;100.00;95236.34;5015965;28;20399;-45
2022/09/08 05:21:30;;;;;;;;;;;18.50;69.40;;;14.62;100.00;95230.69;4987450;28;19909;-42
2022/09/08 05:24:00;;;;;;;;;;;18.50;69.30;;;14.59;100.00;95240.13;5003122;23;19921;-54
2022/09/08 05:26:27;;;;;;;;;;;18.50;69.30;;;14.60;100.00;95235.56;4983857;28;19960;-53
2022/09/08 05:28:53;;;;;;;;;;;18.50;69.30;;;14.56;100.00;95248.75;4989963;28;19909;-55
2022/09/08 05:31:27;;;;;;;;;;;18.50;69.30;;;14.56;100.00;95246.88;4987161;28;20059;-51
2022/09/08 05:33:58;;;;;;;;;;;18.50;69.30;;;14.56;100.00;95244.19;4983553;28;20311;-50
2022/09/08 05:36:32;;;;;;;;;;;18.50;69.40;;;14.59;100.00;95256.22;4987739;28;19917;-51
2022/09/08 05:39:01;;;;;;;;;;;18.50;69.30;;;14.61;100.00;95258.59;4990290;28;19913;-49
2022/09/08 05:41:27;;;;;;;;;;;18.60;69.30;;;14.60;100.00;95259.69;4984788;28;20016;-49
2022/09/08 05:43:58;;;;;;;;;;;18.60;69.20;;;14.62;100.00;95260.19;4981709;28;20008;-47
2022/09/08 05:46:28;;;;;;;;;;;18.70;69.20;;;14.60;100.00;95263.16;4985717;28;20283;-47
2022/09/08 05:49:01;;;;;;;;;;;18.70;69.10;;;14.63;100.00;95257.19;4988224;28;19909;-49
2022/09/08 05:51:32;;;;;;;;;;;18.70;69.00;;;14.68;100.00;95253.63;4985883;28;19920;-50
2022/09/08 05:53:59;;;;;;;;;;;18.80;69.00;;;14.72;100.00;95249.25;4986683;28;19920;-48
2022/09/08 05:56:25;;;;;;;;;;;18.80;68.90;;;14.75;100.00;95267.44;4977306;28;19920;-48
2022/09/08 05:58:54;;;;;;;;;;;18.90;68.90;;;14.78;100.00;95264.16;4986336;28;19917;-46
2022/09/08 06:01:32;;;;;;;;;;;19.00;68.80;;;14.81;100.00;95266.22;4986554;28;20372;-49
2022/09/08 06:03:59;;;;;;;;;;;19.00;68.70;;;14.84;100.00;95276.38;4999842;28;19968;-48
2022/09/08 06:06:27;;;;;;;;;;;19.10;68.60;;;14.84;100.00;95279.03;5002843;28;19910;-49
2022/09/08 06:08:59;;;;;;;;;;;19.10;68.50;;;14.86;100.00;95278.75;4988663;28;19913;-50
2022/09/08 06:11:33;;;;;;;;;;;19.10;68.50;;;14.89;100.00;95275.47;4984252;28;19910;-47
2022/09/08 06:14:00;;;;;;;;;;;19.20;68.50;;;14.94;100.00;95275.38;4986185;28;19909;-52
2022/09/08 06:16:27;;;;;;;;;;;19.20;68.50;;;14.95;100.00;95277.75;4970737;28;19966;-46
2022/09/08 06:18:53;;;;;;;;;;;19.20;68.40;;;14.97;100.00;95280.91;4985073;28;19909;-51
2022/09/08 06:21:23;;;;;;;;;;;19.30;68.30;;;14.99;100.00;95281.44;4994784;28;19917;-48
2022/09/08 06:23:59;;;;;;;;;;;19.30;68.30;;;14.92;100.00;95282.94;4988966;28;19921;-53
2022/09/08 06:26:44;;;;;;;;;;;19.30;68.20;;;14.88;100.00;95282.72;4988033;28;19967;-47
2022/09/08 06:29:30;;;;;;;;;;;19.20;68.10;;;14.86;100.00;95282.22;4997539;28;19917;-50
2022/09/08 06:32:16;;;;;;;;;;;19.20;68.20;;;14.83;100.00;95282.03;4974637;28;19909;-46
2022/09/08 06:34:54;;;;;;;;;;;19.20;68.20;;;14.78;100.00;95288.28;4989591;28;19909;-46
2022/09/08 06:37:47;;;;;;;;;;;19.10;68.10;;;14.84;100.00;95297.03;4990108;28;19916;-46
2022/09/08 06:40:34;;;;;;;;;;;19.20;68.20;;;15.16;100.00;95299.56;4988577;28;20299;-49
2022/09/08 06:43:23;;;;;;;;;;;19.50;68.30;;;15.64;100.00;95301.78;5004013;28;19952;-47
2022/09/08 06:46:00;;;;;;;;;;;19.90;68.40;;;16.11;100.00;95296.16;4984517;28;20036;-47
2022/09/08 06:48:34;;;;;;;;;;;20.50;68.40;;;16.62;100.00;95301.03;4988527;28;20008;-46
2022/09/08 06:51:41;;;;;;;;;;;21.20;68.30;;;17.02;94.14;95309.13;5004109;28;19917;-46
2022/09/08 06:54:10;;;;;;;;;;;21.80;68.10;;;17.32;93.40;95306.66;4987872;28;19924;-48
2022/09/08 06:57:46;;;;;;;;;;;22.00;67.60;;;17.34;89.90;95301.75;4986404;28;20024;-46
2022/09/08 07:00:28;;;;;;;;;;;22.00;67.20;;;17.24;89.70;95313.63;4881659;28;19911;-52
2022/09/08 07:03:45;;;;;;;;;;;22.10;66.80;;;17.21;90.73;95308.88;4960848;28;19921;-52
2022/09/08 07:06:17;;;;;;;;;;;22.00;66.50;;;17.22;90.80;95313.13;4978830;28;20446;-50
2022/09/08 07:08:42;;;;;;;;;;;21.90;66.20;;;17.21;90.81;95316.94;4992705;28;19909;-46
2022/09/08 07:11:45;;;;;;;;;;;21.90;66.20;;;17.15;90.19;95312.81;4993220;28;19910;-49
2022/09/08 07:15:09;;;;;;;;;;;21.90;66.00;;;17.13;89.40;95314.22;4983713;28;19913;-46
2022/09/08 07:18:05;;;;;;;;;;;21.80;65.90;;;17.10;90.89;95305.66;4984316;28;19925;-51
2022/09/08 07:20:32;;;;;;;;;;;21.70;65.90;;;16.95;88.97;95311.44;4993490;28;19909;-52
2022/09/08 07:23:08;;;;;;;;;;;21.60;65.90;;;16.83;87.62;95312.06;4994133;28;19913;-50
2022/09/08 07:25:54;;;;;;;;;;;21.60;65.90;;;16.75;87.37;95307.44;4975570;28;19917;-52
2022/09/08 07:28:24;;;;;;;;;;;21.50;65.70;;;16.78;86.95;95311.41;4993755;28;19910;-52
2022/09/08 07:31:01;;;;;;;;;;;21.50;65.70;;;16.78;86.59;95314.09;4994057;28;19947;-54
2022/09/08 07:33:43;;;;;;;;;;;21.50;65.60;;;16.78;85.30;95303.34;4984433;28;19936;-52
2022/09/08 07:36:33;;;;;;;;;;;21.60;65.50;;;16.82;85.92;95312.34;4976119;28;19956;-54
2022/09/08 07:39:22;;;;;;;;;;;21.60;65.50;;;16.84;85.32;95320.94;4992828;28;20287;-52
2022/09/08 07:41:59;;;;;;;;;;;21.60;65.40;;;16.84;86.27;95316.34;4993042;28;19948;-49
2022/09/08 07:44:26;;;;;;;;;;;21.60;65.50;;;16.86;86.02;95311.44;4989103;28;19910;-52
2022/09/08 07:47:03;;;;;;;;;;;21.50;65.40;;;16.95;86.04;95311.44;4984074;28;19932;-51
2022/09/08 07:49:45;;;;;;;;;;;21.50;65.50;;;17.02;86.12;95317.19;4992563;28;19910;-49
2022/09/08 07:52:32;;;;;;;;;;;21.60;65.50;;;16.97;85.03;95317.31;4992706;28;19913;-52
2022/09/08 07:55:33;;;;;;;;;;;21.70;65.30;;;17.13;85.00;95323.06;4991872;28;20366;-54
2022/09/08 07:58:36;;;;;;;;;;;21.80;65.20;;;17.14;83.95;95315.78;4989161;28;19913;-48
2022/09/08 08:01:12;;;;;;;;;;;22.00;65.10;;;17.20;83.17;95317.22;4992269;28;19917;-50
2022/09/08 08:04:34;;;;;;;;;;;22.00;64.90;;;17.38;83.13;95323.47;4987139;28;19913;-48
2022/09/08 08:07:12;;;;;;;;;;;22.10;64.80;;;17.36;82.79;95321.09;4986846;28;19956;-48
2022/09/08 08:10:04;;;;;;;;;;;22.10;64.70;;;17.50;82.15;95315.56;4991554;28;19920;-49
2022/09/08 08:13:14;;;;;;;;;;;22.20;64.50;;;17.76;83.62;95318.28;4976509;28;20431;-50
2022/09/08 08:16:14;;;;;;;;;;;22.40;64.40;;;17.95;82.54;95312.59;4980058;28;20394;-47
2022/09/08 08:19:10;;;;;;;;;;;22.60;64.30;;;18.10;80.19;95325.59;4993350;28;19972;-52
2022/09/08 08:21:48;;;;;;;;;;;22.90;64.10;;;18.43;80.31;95311.63;4964632;28;19909;-50
2022/09/08 08:24:36;;;;;;;;;;;23.40;63.60;;;18.72;78.34;95318.97;4975816;28;19924;-53
2022/09/08 08:27:42;;;;;;;;;;;23.70;63.30;;;18.94;73.96;95318.75;4990162;28;20281;-55
2022/09/08 08:30:23;;;;;;;;;;;24.00;63.00;;;19.02;73.58;95317.16;4993066;28;20390;-50
2022/09/08 08:33:06;;;;;;;;;;;24.20;62.50;;;19.18;71.49;95326.28;4991863;28;19909;-50
2022/09/08 08:36:05;;;;;;;;;;;24.50;62.00;;;19.50;71.49;95326.75;4988365;28;19920;-51
2022/09/08 08:39:03;;;;;;;;;;;24.80;61.30;;;20.23;70.82;95322.88;4995520;28;19975;-48
2022/09/08 08:41:46;;;;;;;;;;;25.80;60.60;;;20.94;67.87;95322.66;4988248;28;20291;-52
2022/09/08 08:44:36;;;;;;;;;;;26.70;60.10;;;20.98;66.99;95326.25;4989839;28;20376;-49
2022/09/08 08:47:27;;;;;;;;;;;27.00;59.40;;;20.93;65.38;95325.69;4991213;28;20355;-51
2022/09/08 08:50:01;;;;;;;;;;;26.90;58.80;;;20.62;65.98;95321.59;4990332;28;19910;-51
2022/09/08 08:52:49;;;;;;;;;;;26.80;58.30;;;20.42;68.10;95331.28;4975123;28;20012;-54
2022/09/08 08:55:39;;;;;;;;;;;26.60;58.00;;;20.35;67.10;95339.16;4985348;28;19913;-51
2022/09/08 08:58:32;;;;;;;;;;;26.40;57.70;;;20.30;67.92;95339.34;4983937;28;19968;-50
2022/09/08 09:01:21;;;;;;;;;;;26.30;57.80;;;20.22;68.43;95334.81;4984721;28;19917;-53
2022/09/08 09:04:06;;;;;;;;;;;26.10;57.80;;;20.27;67.77;95337.31;4979581;28;20407;-48
2022/09/08 09:06:53;;;;;;;;;;;25.80;57.80;;;20.12;69.58;95336.03;4984539;28;19913;-47
2022/09/08 09:09:37;;;;;;;;;;;25.70;57.80;;;20.05;69.37;95341.16;4989434;28;19909;-50
2022/09/08 09:12:39;;;;;;;;;;;25.50;57.80;;;19.94;69.92;95340.00;4990135;28;19916;-48
2022/09/08 09:15:30;;;;;;;;;;;25.40;57.70;;;19.95;69.42;95342.34;4985245;28;19996;-47
2022/09/08 09:18:52;;;;;;;;;;;25.30;57.80;;;20.02;69.44;95337.19;4988951;28;20407;-49
2022/09/08 09:21:48;;;;;;;;;;;25.40;57.80;;;19.75;68.25;95333.13;4982231;28;20007;-48
2022/09/08 09:24:59;;;;;;;;;;;25.30;57.70;;;19.71;69.37;95324.09;4995868;28;20466;-51
2022/09/08 09:28:26;;;;;;;;;;;25.20;57.50;;;19.74;69.07;95319.94;4984574;28;20360;-48
2022/09/08 09:31:35;;;;;;;;;;;25.10;57.50;;;19.73;67.70;95319.13;5005058;28;20008;-47
2022/09/08 09:34:28;;;;;;;;;;;25.10;57.40;;;19.74;68.41;95315.34;5001994;28;19979;-55
2022/09/08 09:37:05;;;;;;;;;;;25.20;57.40;;;19.97;66.86;95309.59;4992409;28;19917;-48
2022/09/08 09:40:23;;;;;;;;;;;25.30;57.10;;;19.93;65.66;95314.06;4987478;28;19974;-47
2022/09/08 09:43:44;;;;;;;;;;;25.50;56.90;;;20.32;66.92;95310.06;4993356;28;20334;-47
2022/09/08 09:47:07;;;;;;;;;;;25.80;56.60;;;20.41;63.64;95308.06;5007511;28;19909;-51
2022/09/08 09:49:58;;;;;;;;;;;26.10;56.20;;;20.60;64.20;95304.09;4979273;28;20264;-51
2022/09/08 09:53:00;;;;;;;;;;;26.20;55.80;;;20.61;62.50;95295.63;4993784;28;20004;-48
2022/09/08 09:56:04;;;;;;;;;;;26.20;55.70;;;20.68;62.34;95305.91;5010640;28;19913;-48
2022/09/08 09:59:12;;;;;;;;;;;26.20;55.50;;;20.33;62.35;95306.22;5000215;28;20329;-48
2022/09/08 10:02:45;;;;;;;;;;;26.10;55.10;;;20.15;63.55;95300.22;5000144;28;19912;-47
2022/09/08 10:05:55;;;;;;;;;;;25.90;54.60;;;20.22;62.75;95294.25;4931209;28;19921;-48
2022/09/08 10:09:01;;;;;;;;;;;25.80;54.40;;;20.16;60.67;95298.28;4998089;28;19913;-47
2022/09/08 10:11:45;;;;;;;;;;;25.80;54.10;;;20.84;63.17;95292.50;4983622;28;20046;-48
2022/09/08 10:15:08;;;;;;;;;;;26.20;53.80;;;21.24;58.20;95288.00;4992097;28;19920;-48
2022/09/08 10:17:52;;;;;;;;;;;26.90;53.00;;;21.86;57.01;95296.06;4998017;28;19920;-50
2022/09/08 10:21:01;;;;;;;;;;;27.60;52.50;;;22.26;55.58;95289.84;5007947;28;20002;-50
2022/09/08 10:24:23;;;;;;;;;;;28.30;51.70;;;22.52;56.33;95284.72;5010059;28;19920;-50
2022/09/08 10:27:16;;;;;;;;;;;28.70;51.00;;;22.90;54.53;95296.94;5005480;28;19916;-52
2022/09/08 10:30:00;;;;;;;;;;;29.30;50.30;;;23.36;52.32;95282.94;5009476;28;19917;-49
2022/09/08 10:33:06;;;;;;;;;;;30.00;49.60;;;23.82;49.60;95281.25;5006733;28;19920;-50
2022/09/08 10:35:47;;;;;;;;;;;30.60;48.20;;;24.39;50.01;95279.66;5009734;28;19945;-51
2022/09/08 10:39:07;;;;;;;;;;;31.20;47.70;;;24.23;48.11;95284.41;5005973;28;19998;-49
2022/09/08 10:41:58;;;;;;;;;;;31.60;46.40;;;24.21;47.55;95287.47;5012124;28;19958;-51
2022/09/08 10:44:51;;;;;;;;;;;31.90;44.90;;;24.35;48.53;95278.81;5011759;28;20433;-53
2022/09/08 10:47:47;;;;;;;;;;;32.10;43.80;;;24.76;49.16;95283.81;4999678;28;19952;-51
2022/09/08 10:50:26;;;;;;;;;;;32.40;43.80;;;24.82;46.49;95271.47;5013251;28;19967;-51
2022/09/08 10:53:00;;;;;;;;;;;32.60;43.00;;;25.22;48.59;95273.72;4996414;28;19909;-50
2022/09/08 10:56:03;;;;;;;;;;;32.90;43.20;;;25.49;43.37;95266.34;5013945;28;20384;-53
2022/09/08 10:59:05;;;;;;;;;;;33.40;42.90;;;25.11;45.09;95273.53;4987177;28;19913;-54
2022/09/08 11:01:40;;;;;;;;;;;33.70;40.90;;;25.42;45.43;95266.25;5014185;28;19987;-52
2022/09/08 11:04:45;;;;;;;;;;;33.80;41.30;;;25.00;43.79;95269.84;5008066;28;20013;-49
2022/09/08 11:08:00;;;;;;;;;;;33.50;41.50;;;24.82;46.39;95268.75;5012598;28;19920;-51
2022/09/08 11:10:29;;;;;;;;;;;33.30;41.20;;;24.68;48.05;95282.94;5009399;28;19909;-53
2022/09/08 11:13:34;;;;;;;;;;;32.70;41.60;;;24.04;46.95;95282.47;5003506;28;19970;-50
2022/09/08 11:16:39;;;;;;;;;;;32.20;41.30;;;24.22;47.62;95275.47;5005845;28;19917;-52
2022/09/08 11:19:42;;;;;;;;;;;31.90;41.40;;;23.95;47.93;95273.75;4992413;28;19966;-54
2022/09/08 11:22:47;;;;;;;;;;;31.70;41.30;;;23.81;46.85;95281.59;4981796;28;20306;-53
2022/09/08 11:25:24;;;;;;;;;;;31.30;41.40;;;23.30;47.66;95280.47;5048914;22;20346;-46
2022/09/08 11:27:58;;;;;;;;;;;30.90;41.10;;;23.49;48.01;95282.44;5036565;28;19929;-46
2022/09/08 11:30:54;;;;;;;;;;;31.00;40.70;;;24.15;47.75;95277.25;5031442;28;20373;-50
2022/09/08 11:34:06;;;;;;;;;;;31.30;41.00;;;24.91;45.26;95272.03;5031193;28;20668;-46
2022/09/08 11:36:55;;;;;;;;;;;31.90;41.10;;;24.59;44.47;95277.72;5014973;28;19923;-46
2022/09/08 11:39:43;;;;;;;;;;;31.90;40.90;;;24.32;45.80;95279.53;4981290;28;19909;-47
2022/09/08 11:42:57;;;;;;;;;;;32.00;40.20;;;24.44;42.83;95276.69;5029533;28;19913;-47
2022/09/08 11:45:35;;;;;;;;;;;32.40;39.60;;;24.51;42.92;95269.75;5005427;28;19912;-50
2022/09/08 11:48:44;;;;;;;;;;;32.50;39.20;;;24.79;43.45;95283.91;5022791;28;19915;-47
2022/09/08 11:51:33;;;;;;;;;;;32.90;38.60;;;24.73;42.65;95281.84;5019175;28;20321;-46
2022/09/08 11:54:39;;;;;;;;;;;32.90;37.70;;;24.76;40.80;95278.38;5025366;28;19951;-46
2022/09/08 11:57:41;;;;;;;;;;;32.70;37.30;;;24.90;41.59;95279.41;5025817;28;20695;-47
2022/09/08 12:00:31;;;;;;;;;;;33.00;36.60;;;24.96;39.82;95279.91;5017830;28;19915;-45
2022/09/08 12:03:15;;;;;;;;;;;32.80;36.60;;;25.08;41.59;95273.47;5024486;28;20008;-50
2022/09/08 12:05:53;;;;;;;;;;;32.80;36.60;;;25.17;40.71;95270.53;5010175;28;19912;-45
2022/09/08 12:09:08;;;;;;;;;;;33.20;36.40;;;25.39;40.68;95270.50;5019129;28;19912;-49
2022/09/08 12:12:26;;;;;;;;;;;33.60;36.00;;;25.43;41.31;95277.94;5024815;28;20008;-46
2022/09/08 12:15:42;;;;;;;;;;;33.70;35.60;;;26.28;42.72;95270.09;4940739;28;19967;-45
2022/09/08 12:18:44;;;;;;;;;;;34.20;35.80;;;26.27;41.55;95274.78;5023571;28;19917;-46